sensor_id;sensor_type;location;lat;lon;timestamp;P1;durP1;ratioP1;P2;durP2;ratioP2
69841;SDS011;57138;51.326;-0.068;2023-06-14T00:01:53;7.07;;;2.67;;
69841;SDS011;57138;51.326;-0.068;2023-06-14T00:04:20;7.25;;;3.20;;
69841;SDS011;57138;51.326;-0.068;2023-06-14T00:06:47;8.00;;;2.83;;
69841;SDS011;57138;51.326;-0.068;2023-06-14T00:09:15;8.02;;;3.15;;
69841;SDS011;57138;51.326;-0.068;2023-06-14T00:11:43;7.07;;;2.83;;
69841;SDS011;57138;51.326;-0.068;2023-06-14T00:14:09;9.00;;;3.30;;
69841;SDS011;57138;51.326;-0.068;2023-06-14T00:16:35;7.55;;;3.13;;
69841;SDS011;57138;51.326;-0.068;2023-06-14T00:19:02;5.70;;;2.92;;
69841;SDS011;57138;51.326;-0.068;2023-06-14T00:21:30;7.28;;;2.83;;
69841;SDS011;57138;51.326;-0.068;2023-06-14T00:23:57;6.75;;;2.75;;
69841;SDS011;57138;51.326;-0.068;2023-06-14T00:26:23;5.40;;;2.53;;
69841;SDS011;57138;51.326;-0.068;2023-06-14T00:28:49;10.23;;;3.38;;
69841;SDS011;57138;51.326;-0.068;2023-06-14T00:31:15;6.68;;;2.88;;
69841;SDS011;57138;51.326;-0.068;2023-06-14T00:33:43;14.50;;;3.65;;
69841;SDS011;57138;51.326;-0.068;2023-06-14T00:36:09;10.88;;;3.22;;
69841;SDS011;57138;51.326;-0.068;2023-06-14T00:38:35;6.97;;;3.00;;
69841;SDS011;57138;51.326;-0.068;2023-06-14T00:41:01;9.40;;;3.13;;
69841;SDS011;57138;51.326;-0.068;2023-06-14T00:43:26;5.80;;;2.95;;
69841;SDS011;57138;51.326;-0.068;2023-06-14T00:45:52;9.38;;;3.78;;
69841;SDS011;57138;51.326;-0.068;2023-06-14T00:48:18;5.90;;;2.80;;
69841;SDS011;57138;51.326;-0.068;2023-06-14T00:50:45;7.13;;;3.38;;
69841;SDS011;57138;51.326;-0.068;2023-06-14T00:53:14;8.60;;;2.83;;
69841;SDS011;57138;51.326;-0.068;2023-06-14T00:55:40;7.43;;;2.65;;
69841;SDS011;57138;51.326;-0.068;2023-06-14T00:58:06;7.10;;;2.80;;
69841;SDS011;57138;51.326;-0.068;2023-06-14T01:00:33;7.53;;;2.90;;
69841;SDS011;57138;51.326;-0.068;2023-06-14T01:02:59;7.22;;;2.60;;
69841;SDS011;57138;51.326;-0.068;2023-06-14T01:05:24;9.77;;;2.50;;
69841;SDS011;57138;51.326;-0.068;2023-06-14T01:08:05;7.47;;;2.83;;
69841;SDS011;57138;51.326;-0.068;2023-06-14T01:13:27;7.05;;;3.33;;
69841;SDS011;57138;51.326;-0.068;2023-06-14T01:15:57;10.80;;;3.20;;
69841;SDS011;57138;51.326;-0.068;2023-06-14T01:18:23;7.18;;;3.00;;
69841;SDS011;57138;51.326;-0.068;2023-06-14T01:20:51;9.25;;;3.20;;
69841;SDS011;57138;51.326;-0.068;2023-06-14T01:23:21;7.07;;;3.30;;
69841;SDS011;57138;51.326;-0.068;2023-06-14T01:25:48;7.53;;;2.42;;
69841;SDS011;57138;51.326;-0.068;2023-06-14T01:28:19;9.45;;;2.55;;
69841;SDS011;57138;51.326;-0.068;2023-06-14T01:30:51;5.47;;;2.30;;
69841;SDS011;57138;51.326;-0.068;2023-06-14T01:33:19;12.98;;;3.22;;
69841;SDS011;57138;51.326;-0.068;2023-06-14T01:35:50;10.55;;;3.92;;
69841;SDS011;57138;51.326;-0.068;2023-06-14T01:38:17;10.13;;;2.78;;
69841;SDS011;57138;51.326;-0.068;2023-06-14T01:40:45;6.50;;;2.20;;
69841;SDS011;57138;51.326;-0.068;2023-06-14T01:43:13;8.85;;;2.70;;
69841;SDS011;57138;51.326;-0.068;2023-06-14T01:45:40;8.75;;;2.42;;
69841;SDS011;57138;51.326;-0.068;2023-06-14T01:48:07;7.10;;;2.60;;
69841;SDS011;57138;51.326;-0.068;2023-06-14T01:50:33;7.78;;;2.55;;
69841;SDS011;57138;51.326;-0.068;2023-06-14T01:53:00;7.57;;;2.78;;
69841;SDS011;57138;51.326;-0.068;2023-06-14T01:55:26;10.75;;;3.38;;
69841;SDS011;57138;51.326;-0.068;2023-06-14T01:57:52;11.15;;;3.13;;
69841;SDS011;57138;51.326;-0.068;2023-06-14T02:00:18;12.57;;;2.95;;
69841;SDS011;57138;51.326;-0.068;2023-06-14T02:02:44;10.10;;;3.03;;
69841;SDS011;57138;51.326;-0.068;2023-06-14T02:05:10;12.23;;;2.90;;
69841;SDS011;57138;51.326;-0.068;2023-06-14T02:07:36;5.70;;;2.50;;
69841;SDS011;57138;51.326;-0.068;2023-06-14T02:10:02;10.93;;;2.53;;
69841;SDS011;57138;51.326;-0.068;2023-06-14T02:12:28;10.52;;;2.78;;
69841;SDS011;57138;51.326;-0.068;2023-06-14T02:14:53;9.45;;;2.83;;
69841;SDS011;57138;51.326;-0.068;2023-06-14T02:17:19;13.73;;;4.07;;
69841;SDS011;57138;51.326;-0.068;2023-06-14T02:19:45;18.17;;;4.20;;
69841;SDS011;57138;51.326;-0.068;2023-06-14T02:22:10;10.00;;;2.85;;
69841;SDS011;57138;51.326;-0.068;2023-06-14T02:24:36;10.68;;;2.78;;
69841;SDS011;57138;51.326;-0.068;2023-06-14T02:27:01;7.13;;;2.70;;
69841;SDS011;57138;51.326;-0.068;2023-06-14T02:29:27;9.57;;;2.92;;
69841;SDS011;57138;51.326;-0.068;2023-06-14T02:31:53;17.65;;;3.25;;
69841;SDS011;57138;51.326;-0.068;2023-06-14T02:34:18;5.97;;;2.67;;
69841;SDS011;57138;51.326;-0.068;2023-06-14T02:36:45;15.90;;;3.60;;
69841;SDS011;57138;51.326;-0.068;2023-06-14T02:39:11;17.48;;;3.63;;
69841;SDS011;57138;51.326;-0.068;2023-06-14T02:41:37;11.38;;;3.30;;
69841;SDS011;57138;51.326;-0.068;2023-06-14T02:44:04;12.10;;;3.47;;
69841;SDS011;57138;51.326;-0.068;2023-06-14T02:46:36;9.50;;;2.70;;
69841;SDS011;57138;51.326;-0.068;2023-06-14T02:49:02;8.82;;;3.85;;
69841;SDS011;57138;51.326;-0.068;2023-06-14T02:51:27;11.65;;;2.90;;
69841;SDS011;57138;51.326;-0.068;2023-06-14T02:53:53;10.02;;;3.20;;
69841;SDS011;57138;51.326;-0.068;2023-06-14T02:56:19;11.30;;;3.80;;
69841;SDS011;57138;51.326;-0.068;2023-06-14T02:58:44;15.98;;;3.50;;
69841;SDS011;57138;51.326;-0.068;2023-06-14T03:01:10;9.02;;;2.67;;
69841;SDS011;57138;51.326;-0.068;2023-06-14T03:03:37;13.63;;;3.08;;
69841;SDS011;57138;51.326;-0.068;2023-06-14T03:06:03;10.15;;;3.13;;
69841;SDS011;57138;51.326;-0.068;2023-06-14T03:08:30;9.38;;;3.00;;
69841;SDS011;57138;51.326;-0.068;2023-06-14T03:11:03;14.48;;;3.42;;
69841;SDS011;57138;51.326;-0.068;2023-06-14T03:13:30;8.85;;;3.30;;
69841;SDS011;57138;51.326;-0.068;2023-06-14T03:15:57;14.10;;;3.50;;
69841;SDS011;57138;51.326;-0.068;2023-06-14T03:18:23;19.42;;;3.13;;
69841;SDS011;57138;51.326;-0.068;2023-06-14T03:20:48;9.63;;;3.25;;
69841;SDS011;57138;51.326;-0.068;2023-06-14T03:23:14;12.20;;;4.65;;
69841;SDS011;57138;51.326;-0.068;2023-06-14T03:25:39;8.57;;;3.30;;
69841;SDS011;57138;51.326;-0.068;2023-06-14T03:28:07;9.52;;;3.28;;
69841;SDS011;57138;51.326;-0.068;2023-06-14T03:30:33;10.52;;;3.70;;
69841;SDS011;57138;51.326;-0.068;2023-06-14T03:32:58;12.07;;;4.30;;
69841;SDS011;57138;51.326;-0.068;2023-06-14T03:35:26;15.13;;;3.30;;
69841;SDS011;57138;51.326;-0.068;2023-06-14T03:37:52;12.57;;;3.90;;
69841;SDS011;57138;51.326;-0.068;2023-06-14T03:40:18;14.55;;;3.15;;
69841;SDS011;57138;51.326;-0.068;2023-06-14T03:42:45;14.52;;;3.47;;
69841;SDS011;57138;51.326;-0.068;2023-06-14T03:45:10;9.57;;;3.40;;
69841;SDS011;57138;51.326;-0.068;2023-06-14T03:47:35;10.45;;;3.25;;
69841;SDS011;57138;51.326;-0.068;2023-06-14T03:50:02;10.18;;;3.50;;
69841;SDS011;57138;51.326;-0.068;2023-06-14T03:52:28;23.65;;;4.18;;
69841;SDS011;57138;51.326;-0.068;2023-06-14T03:54:54;16.52;;;3.75;;
69841;SDS011;57138;51.326;-0.068;2023-06-14T03:57:20;11.90;;;2.90;;
69841;SDS011;57138;51.326;-0.068;2023-06-14T03:59:46;11.07;;;3.97;;
69841;SDS011;57138;51.326;-0.068;2023-06-14T04:02:12;10.82;;;3.80;;
69841;SDS011;57138;51.326;-0.068;2023-06-14T04:04:40;11.40;;;3.30;;
69841;SDS011;57138;51.326;-0.068;2023-06-14T04:07:12;14.68;;;3.67;;
69841;SDS011;57138;51.326;-0.068;2023-06-14T04:09:38;15.07;;;4.20;;
69841;SDS011;57138;51.326;-0.068;2023-06-14T04:12:05;10.15;;;3.58;;
69841;SDS011;57138;51.326;-0.068;2023-06-14T04:14:31;13.38;;;3.63;;
69841;SDS011;57138;51.326;-0.068;2023-06-14T04:16:58;12.25;;;3.75;;
69841;SDS011;57138;51.326;-0.068;2023-06-14T04:19:23;19.13;;;5.50;;
69841;SDS011;57138;51.326;-0.068;2023-06-14T04:21:48;9.50;;;4.07;;
69841;SDS011;57138;51.326;-0.068;2023-06-14T04:24:14;9.35;;;3.50;;
69841;SDS011;57138;51.326;-0.068;2023-06-14T04:26:41;10.52;;;4.10;;
69841;SDS011;57138;51.326;-0.068;2023-06-14T04:29:09;9.68;;;3.47;;
69841;SDS011;57138;51.326;-0.068;2023-06-14T04:31:39;13.32;;;3.30;;
69841;SDS011;57138;51.326;-0.068;2023-06-14T04:34:05;13.85;;;4.28;;
69841;SDS011;57138;51.326;-0.068;2023-06-14T04:36:35;9.95;;;4.10;;
69841;SDS011;57138;51.326;-0.068;2023-06-14T04:39:03;13.13;;;3.90;;
69841;SDS011;57138;51.326;-0.068;2023-06-14T04:41:32;13.98;;;3.70;;
69841;SDS011;57138;51.326;-0.068;2023-06-14T04:43:57;7.82;;;3.55;;
69841;SDS011;57138;51.326;-0.068;2023-06-14T04:46:26;17.25;;;5.05;;
69841;SDS011;57138;51.326;-0.068;2023-06-14T04:48:57;12.43;;;4.00;;
69841;SDS011;57138;51.326;-0.068;2023-06-14T04:51:25;10.07;;;3.80;;
69841;SDS011;57138;51.326;-0.068;2023-06-14T04:53:57;15.63;;;4.00;;
69841;SDS011;57138;51.326;-0.068;2023-06-14T04:56:24;13.07;;;4.55;;
69841;SDS011;57138;51.326;-0.068;2023-06-14T04:58:54;16.10;;;5.07;;
69841;SDS011;57138;51.326;-0.068;2023-06-14T05:01:22;11.38;;;4.30;;
69841;SDS011;57138;51.326;-0.068;2023-06-14T05:03:48;14.35;;;4.38;;
69841;SDS011;57138;51.326;-0.068;2023-06-14T05:06:15;16.05;;;4.03;;
69841;SDS011;57138;51.326;-0.068;2023-06-14T05:08:41;12.00;;;4.00;;
69841;SDS011;57138;51.326;-0.068;2023-06-14T05:11:08;16.67;;;5.20;;
69841;SDS011;57138;51.326;-0.068;2023-06-14T05:13:33;22.25;;;6.72;;
69841;SDS011;57138;51.326;-0.068;2023-06-14T05:16:02;12.77;;;4.07;;
69841;SDS011;57138;51.326;-0.068;2023-06-14T05:18:28;11.63;;;4.38;;
69841;SDS011;57138;51.326;-0.068;2023-06-14T05:20:54;18.58;;;5.82;;
69841;SDS011;57138;51.326;-0.068;2023-06-14T05:23:20;11.43;;;3.88;;
69841;SDS011;57138;51.326;-0.068;2023-06-14T05:25:45;10.07;;;4.22;;
69841;SDS011;57138;51.326;-0.068;2023-06-14T05:28:11;11.60;;;3.75;;
69841;SDS011;57138;51.326;-0.068;2023-06-14T05:30:37;9.40;;;4.22;;
69841;SDS011;57138;51.326;-0.068;2023-06-14T05:33:07;12.82;;;4.20;;
69841;SDS011;57138;51.326;-0.068;2023-06-14T05:35:33;13.55;;;4.13;;
69841;SDS011;57138;51.326;-0.068;2023-06-14T05:37:58;18.10;;;5.88;;
69841;SDS011;57138;51.326;-0.068;2023-06-14T05:40:24;15.88;;;4.70;;
69841;SDS011;57138;51.326;-0.068;2023-06-14T05:42:49;11.32;;;4.70;;
69841;SDS011;57138;51.326;-0.068;2023-06-14T05:45:15;14.23;;;5.50;;
69841;SDS011;57138;51.326;-0.068;2023-06-14T05:47:41;15.50;;;4.18;;
69841;SDS011;57138;51.326;-0.068;2023-06-14T05:50:07;19.92;;;5.15;;
69841;SDS011;57138;51.326;-0.068;2023-06-14T05:52:33;16.35;;;5.47;;
69841;SDS011;57138;51.326;-0.068;2023-06-14T05:55:00;14.38;;;5.30;;
69841;SDS011;57138;51.326;-0.068;2023-06-14T05:57:25;15.70;;;5.20;;
69841;SDS011;57138;51.326;-0.068;2023-06-14T05:59:51;19.13;;;4.72;;
69841;SDS011;57138;51.326;-0.068;2023-06-14T06:02:16;14.10;;;4.95;;
69841;SDS011;57138;51.326;-0.068;2023-06-14T06:04:42;19.02;;;6.10;;
69841;SDS011;57138;51.326;-0.068;2023-06-14T06:07:09;12.77;;;4.47;;
69841;SDS011;57138;51.326;-0.068;2023-06-14T06:09:35;11.13;;;4.72;;
69841;SDS011;57138;51.326;-0.068;2023-06-14T06:12:00;17.75;;;5.45;;
69841;SDS011;57138;51.326;-0.068;2023-06-14T06:14:26;13.95;;;5.00;;
69841;SDS011;57138;51.326;-0.068;2023-06-14T06:16:53;21.52;;;5.97;;
69841;SDS011;57138;51.326;-0.068;2023-06-14T06:19:19;15.70;;;5.38;;
69841;SDS011;57138;51.326;-0.068;2023-06-14T06:21:45;28.00;;;5.97;;
69841;SDS011;57138;51.326;-0.068;2023-06-14T06:24:11;23.48;;;5.78;;
69841;SDS011;57138;51.326;-0.068;2023-06-14T06:26:37;19.05;;;5.00;;
69841;SDS011;57138;51.326;-0.068;2023-06-14T06:29:04;21.25;;;6.15;;
69841;SDS011;57138;51.326;-0.068;2023-06-14T06:31:30;11.80;;;5.28;;
69841;SDS011;57138;51.326;-0.068;2023-06-14T06:33:55;13.57;;;5.45;;
69841;SDS011;57138;51.326;-0.068;2023-06-14T06:36:21;19.65;;;5.82;;
69841;SDS011;57138;51.326;-0.068;2023-06-14T06:38:47;19.13;;;6.05;;
69841;SDS011;57138;51.326;-0.068;2023-06-14T06:41:13;24.65;;;5.72;;
69841;SDS011;57138;51.326;-0.068;2023-06-14T06:43:38;19.88;;;6.07;;
69841;SDS011;57138;51.326;-0.068;2023-06-14T06:46:04;17.73;;;5.57;;
69841;SDS011;57138;51.326;-0.068;2023-06-14T06:48:29;20.23;;;5.75;;
69841;SDS011;57138;51.326;-0.068;2023-06-14T06:50:55;17.10;;;5.63;;
69841;SDS011;57138;51.326;-0.068;2023-06-14T06:53:21;13.38;;;4.97;;
69841;SDS011;57138;51.326;-0.068;2023-06-14T06:55:48;12.88;;;4.70;;
69841;SDS011;57138;51.326;-0.068;2023-06-14T06:58:13;26.23;;;5.40;;
69841;SDS011;57138;51.326;-0.068;2023-06-14T07:00:40;24.98;;;5.72;;
69841;SDS011;57138;51.326;-0.068;2023-06-14T07:03:06;13.68;;;5.47;;
69841;SDS011;57138;51.326;-0.068;2023-06-14T07:05:33;17.05;;;5.40;;
69841;SDS011;57138;51.326;-0.068;2023-06-14T07:07:58;16.50;;;5.72;;
69841;SDS011;57138;51.326;-0.068;2023-06-14T07:10:24;17.88;;;5.43;;
69841;SDS011;57138;51.326;-0.068;2023-06-14T07:12:50;16.52;;;4.53;;
69841;SDS011;57138;51.326;-0.068;2023-06-14T07:15:15;15.85;;;5.40;;
69841;SDS011;57138;51.326;-0.068;2023-06-14T07:17:41;12.02;;;4.50;;
69841;SDS011;57138;51.326;-0.068;2023-06-14T07:20:09;12.88;;;4.40;;
69841;SDS011;57138;51.326;-0.068;2023-06-14T07:22:39;13.20;;;4.97;;
69841;SDS011;57138;51.326;-0.068;2023-06-14T07:25:12;18.95;;;5.13;;
69841;SDS011;57138;51.326;-0.068;2023-06-14T07:27:41;17.48;;;4.88;;
69841;SDS011;57138;51.326;-0.068;2023-06-14T07:30:07;20.65;;;7.28;;
69841;SDS011;57138;51.326;-0.068;2023-06-14T07:32:33;16.15;;;5.15;;
69841;SDS011;57138;51.326;-0.068;2023-06-14T07:34:59;14.88;;;5.63;;
69841;SDS011;57138;51.326;-0.068;2023-06-14T07:37:25;15.75;;;5.03;;
69841;SDS011;57138;51.326;-0.068;2023-06-14T07:39:50;12.93;;;4.93;;
69841;SDS011;57138;51.326;-0.068;2023-06-14T07:42:16;21.90;;;5.03;;
69841;SDS011;57138;51.326;-0.068;2023-06-14T07:44:41;13.70;;;4.32;;
69841;SDS011;57138;51.326;-0.068;2023-06-14T07:47:07;14.68;;;4.63;;
69841;SDS011;57138;51.326;-0.068;2023-06-14T07:49:32;12.38;;;4.90;;
69841;SDS011;57138;51.326;-0.068;2023-06-14T07:51:58;16.63;;;6.78;;
69841;SDS011;57138;51.326;-0.068;2023-06-14T07:54:24;22.25;;;5.15;;
69841;SDS011;57138;51.326;-0.068;2023-06-14T07:56:52;22.10;;;5.75;;
69841;SDS011;57138;51.326;-0.068;2023-06-14T07:59:18;19.88;;;5.22;;
69841;SDS011;57138;51.326;-0.068;2023-06-14T08:01:44;19.42;;;5.68;;
69841;SDS011;57138;51.326;-0.068;2023-06-14T08:04:12;10.45;;;5.38;;
69841;SDS011;57138;51.326;-0.068;2023-06-14T08:06:38;9.80;;;4.80;;
69841;SDS011;57138;51.326;-0.068;2023-06-14T08:09:04;25.98;;;5.88;;
69841;SDS011;57138;51.326;-0.068;2023-06-14T08:11:30;21.42;;;4.97;;
69841;SDS011;57138;51.326;-0.068;2023-06-14T08:13:56;15.98;;;5.82;;
69841;SDS011;57138;51.326;-0.068;2023-06-14T08:16:21;13.35;;;4.93;;
69841;SDS011;57138;51.326;-0.068;2023-06-14T08:18:47;16.38;;;4.72;;
69841;SDS011;57138;51.326;-0.068;2023-06-14T08:21:12;26.27;;;7.35;;
69841;SDS011;57138;51.326;-0.068;2023-06-14T08:23:39;19.63;;;5.55;;
69841;SDS011;57138;51.326;-0.068;2023-06-14T08:26:07;19.10;;;5.40;;
69841;SDS011;57138;51.326;-0.068;2023-06-14T08:28:33;18.17;;;5.97;;
69841;SDS011;57138;51.326;-0.068;2023-06-14T08:30:59;13.27;;;5.05;;
69841;SDS011;57138;51.326;-0.068;2023-06-14T08:33:24;12.20;;;6.35;;
69841;SDS011;57138;51.326;-0.068;2023-06-14T08:35:50;17.08;;;4.97;;
69841;SDS011;57138;51.326;-0.068;2023-06-14T08:38:15;14.82;;;5.00;;
69841;SDS011;57138;51.326;-0.068;2023-06-14T08:40:41;13.13;;;5.18;;
69841;SDS011;57138;51.326;-0.068;2023-06-14T08:43:07;21.38;;;5.72;;
69841;SDS011;57138;51.326;-0.068;2023-06-14T08:45:33;15.23;;;5.82;;
69841;SDS011;57138;51.326;-0.068;2023-06-14T08:47:59;16.33;;;5.68;;
69841;SDS011;57138;51.326;-0.068;2023-06-14T08:50:26;16.15;;;5.32;;
69841;SDS011;57138;51.326;-0.068;2023-06-14T08:52:56;15.13;;;7.38;;
69841;SDS011;57138;51.326;-0.068;2023-06-14T08:55:26;13.05;;;5.22;;
69841;SDS011;57138;51.326;-0.068;2023-06-14T08:57:56;12.48;;;5.35;;
69841;SDS011;57138;51.326;-0.068;2023-06-14T09:00:23;14.30;;;4.60;;
69841;SDS011;57138;51.326;-0.068;2023-06-14T09:02:52;14.65;;;5.82;;
69841;SDS011;57138;51.326;-0.068;2023-06-14T09:05:26;12.25;;;4.65;;
69841;SDS011;57138;51.326;-0.068;2023-06-14T09:07:53;18.88;;;6.53;;
69841;SDS011;57138;51.326;-0.068;2023-06-14T09:10:23;13.73;;;4.82;;
69841;SDS011;57138;51.326;-0.068;2023-06-14T09:12:51;10.65;;;4.95;;
69841;SDS011;57138;51.326;-0.068;2023-06-14T09:15:16;13.32;;;5.18;;
69841;SDS011;57138;51.326;-0.068;2023-06-14T09:17:42;18.15;;;6.30;;
69841;SDS011;57138;51.326;-0.068;2023-06-14T09:20:08;17.17;;;6.05;;
69841;SDS011;57138;51.326;-0.068;2023-06-14T09:22:39;14.32;;;5.43;;
69841;SDS011;57138;51.326;-0.068;2023-06-14T09:25:05;19.27;;;5.80;;
69841;SDS011;57138;51.326;-0.068;2023-06-14T09:27:34;17.25;;;5.15;;
69841;SDS011;57138;51.326;-0.068;2023-06-14T09:30:00;16.15;;;6.05;;
69841;SDS011;57138;51.326;-0.068;2023-06-14T09:32:29;11.55;;;5.38;;
69841;SDS011;57138;51.326;-0.068;2023-06-14T09:34:55;17.27;;;5.97;;
69841;SDS011;57138;51.326;-0.068;2023-06-14T09:37:28;14.38;;;5.30;;
69841;SDS011;57138;51.326;-0.068;2023-06-14T09:39:55;11.45;;;5.43;;
69841;SDS011;57138;51.326;-0.068;2023-06-14T09:42:20;17.05;;;5.65;;
69841;SDS011;57138;51.326;-0.068;2023-06-14T09:44:49;11.77;;;5.55;;
69841;SDS011;57138;51.326;-0.068;2023-06-14T09:47:15;12.10;;;5.28;;
69841;SDS011;57138;51.326;-0.068;2023-06-14T09:49:41;20.27;;;6.30;;
69841;SDS011;57138;51.326;-0.068;2023-06-14T09:52:12;14.52;;;5.43;;
69841;SDS011;57138;51.326;-0.068;2023-06-14T09:54:41;12.57;;;5.88;;
69841;SDS011;57138;51.326;-0.068;2023-06-14T09:57:19;15.18;;;5.18;;
69841;SDS011;57138;51.326;-0.068;2023-06-14T09:59:46;17.48;;;6.38;;
69841;SDS011;57138;51.326;-0.068;2023-06-14T10:02:26;16.55;;;5.47;;
69841;SDS011;57138;51.326;-0.068;2023-06-14T10:05:03;15.23;;;5.70;;
69841;SDS011;57138;51.326;-0.068;2023-06-14T10:07:38;15.35;;;5.80;;
69841;SDS011;57138;51.326;-0.068;2023-06-14T10:10:07;15.93;;;6.55;;
69841;SDS011;57138;51.326;-0.068;2023-06-14T10:12:34;16.00;;;4.85;;
69841;SDS011;57138;51.326;-0.068;2023-06-14T10:15:02;15.10;;;5.45;;
69841;SDS011;57138;51.326;-0.068;2023-06-14T10:22:30;14.73;;;5.10;;
69841;SDS011;57138;51.326;-0.068;2023-06-14T10:24:59;15.63;;;5.32;;
69841;SDS011;57138;51.326;-0.068;2023-06-14T10:27:25;14.55;;;5.43;;
69841;SDS011;57138;51.326;-0.068;2023-06-14T10:32:20;20.10;;;5.05;;
69841;SDS011;57138;51.326;-0.068;2023-06-14T10:34:46;12.40;;;4.78;;
69841;SDS011;57138;51.326;-0.068;2023-06-14T10:37:19;12.93;;;5.30;;
69841;SDS011;57138;51.326;-0.068;2023-06-14T10:39:44;13.82;;;5.43;;
69841;SDS011;57138;51.326;-0.068;2023-06-14T10:42:14;16.83;;;5.72;;
69841;SDS011;57138;51.326;-0.068;2023-06-14T10:44:41;14.20;;;5.30;;
69841;SDS011;57138;51.326;-0.068;2023-06-14T10:49:50;13.32;;;5.13;;
69841;SDS011;57138;51.326;-0.068;2023-06-14T10:52:21;17.23;;;4.63;;
69841;SDS011;57138;51.326;-0.068;2023-06-14T10:57:43;16.17;;;4.78;;
69841;SDS011;57138;51.326;-0.068;2023-06-14T11:00:16;13.38;;;5.28;;
69841;SDS011;57138;51.326;-0.068;2023-06-14T11:05:50;14.18;;;5.18;;
69841;SDS011;57138;51.326;-0.068;2023-06-14T11:08:22;14.43;;;4.60;;
69841;SDS011;57138;51.326;-0.068;2023-06-14T11:11:09;14.40;;;4.75;;
69841;SDS011;57138;51.326;-0.068;2023-06-14T11:13:38;11.90;;;5.47;;
69841;SDS011;57138;51.326;-0.068;2023-06-14T11:16:14;19.98;;;5.07;;
69841;SDS011;57138;51.326;-0.068;2023-06-14T11:18:41;15.20;;;4.80;;
69841;SDS011;57138;51.326;-0.068;2023-06-14T11:21:07;17.00;;;5.30;;
69841;SDS011;57138;51.326;-0.068;2023-06-14T11:23:34;11.57;;;5.00;;
69841;SDS011;57138;51.326;-0.068;2023-06-14T11:26:00;11.23;;;4.82;;
69841;SDS011;57138;51.326;-0.068;2023-06-14T11:28:38;11.70;;;5.18;;
69841;SDS011;57138;51.326;-0.068;2023-06-14T11:31:05;11.10;;;4.57;;
69841;SDS011;57138;51.326;-0.068;2023-06-14T11:33:30;14.98;;;4.78;;
69841;SDS011;57138;51.326;-0.068;2023-06-14T11:35:58;14.52;;;5.45;;
69841;SDS011;57138;51.326;-0.068;2023-06-14T11:38:25;14.55;;;4.80;;
69841;SDS011;57138;51.326;-0.068;2023-06-14T11:40:51;16.92;;;4.75;;
69841;SDS011;57138;51.326;-0.068;2023-06-14T11:43:16;10.85;;;4.07;;
69841;SDS011;57138;51.326;-0.068;2023-06-14T11:45:47;10.95;;;4.85;;
69841;SDS011;57138;51.326;-0.068;2023-06-14T11:48:14;13.05;;;4.63;;
69841;SDS011;57138;51.326;-0.068;2023-06-14T11:50:40;17.50;;;5.47;;
69841;SDS011;57138;51.326;-0.068;2023-06-14T11:53:06;10.40;;;4.65;;
69841;SDS011;57138;51.326;-0.068;2023-06-14T11:55:35;15.52;;;5.40;;
69841;SDS011;57138;51.326;-0.068;2023-06-14T11:58:02;15.23;;;5.25;;
69841;SDS011;57138;51.326;-0.068;2023-06-14T12:00:28;13.38;;;5.38;;
69841;SDS011;57138;51.326;-0.068;2023-06-14T12:02:54;11.38;;;4.68;;
69841;SDS011;57138;51.326;-0.068;2023-06-14T12:05:21;11.82;;;5.18;;
69841;SDS011;57138;51.326;-0.068;2023-06-14T12:07:47;11.98;;;4.90;;
69841;SDS011;57138;51.326;-0.068;2023-06-14T12:10:13;11.82;;;4.55;;
69841;SDS011;57138;51.326;-0.068;2023-06-14T12:12:39;14.88;;;6.43;;
69841;SDS011;57138;51.326;-0.068;2023-06-14T12:15:06;14.68;;;4.85;;
69841;SDS011;57138;51.326;-0.068;2023-06-14T12:17:36;13.40;;;5.10;;
69841;SDS011;57138;51.326;-0.068;2023-06-14T12:20:08;11.93;;;5.00;;
69841;SDS011;57138;51.326;-0.068;2023-06-14T12:22:54;10.13;;;4.97;;
69841;SDS011;57138;51.326;-0.068;2023-06-14T12:27:52;9.02;;;5.10;;
69841;SDS011;57138;51.326;-0.068;2023-06-14T12:30:18;12.25;;;4.97;;
69841;SDS011;57138;51.326;-0.068;2023-06-14T12:32:44;14.15;;;4.28;;
69841;SDS011;57138;51.326;-0.068;2023-06-14T12:35:10;10.80;;;4.53;;
69841;SDS011;57138;51.326;-0.068;2023-06-14T12:37:35;10.90;;;4.65;;
69841;SDS011;57138;51.326;-0.068;2023-06-14T12:40:01;11.88;;;5.28;;
69841;SDS011;57138;51.326;-0.068;2023-06-14T12:42:32;15.85;;;4.43;;
69841;SDS011;57138;51.326;-0.068;2023-06-14T12:44:58;16.23;;;5.65;;
69841;SDS011;57138;51.326;-0.068;2023-06-14T12:47:24;11.18;;;4.32;;
69841;SDS011;57138;51.326;-0.068;2023-06-14T12:49:50;11.00;;;4.38;;
69841;SDS011;57138;51.326;-0.068;2023-06-14T12:52:16;15.35;;;4.68;;
69841;SDS011;57138;51.326;-0.068;2023-06-14T12:54:41;12.80;;;4.93;;
69841;SDS011;57138;51.326;-0.068;2023-06-14T12:57:07;10.43;;;4.20;;
69841;SDS011;57138;51.326;-0.068;2023-06-14T12:59:32;15.75;;;7.97;;
69841;SDS011;57138;51.326;-0.068;2023-06-14T13:02:14;11.50;;;4.60;;
69841;SDS011;57138;51.326;-0.068;2023-06-14T13:04:41;9.85;;;5.32;;
69841;SDS011;57138;51.326;-0.068;2023-06-14T13:07:06;10.05;;;4.68;;
69841;SDS011;57138;51.326;-0.068;2023-06-14T13:09:32;12.77;;;4.20;;
69841;SDS011;57138;51.326;-0.068;2023-06-14T13:11:57;11.80;;;4.75;;
69841;SDS011;57138;51.326;-0.068;2023-06-14T13:14:23;10.88;;;4.85;;
69841;SDS011;57138;51.326;-0.068;2023-06-14T13:16:48;8.73;;;4.20;;
69841;SDS011;57138;51.326;-0.068;2023-06-14T13:19:14;13.82;;;4.10;;
69841;SDS011;57138;51.326;-0.068;2023-06-14T13:21:39;8.80;;;4.47;;
69841;SDS011;57138;51.326;-0.068;2023-06-14T13:24:05;8.93;;;4.18;;
69841;SDS011;57138;51.326;-0.068;2023-06-14T13:26:32;9.80;;;4.35;;
69841;SDS011;57138;51.326;-0.068;2023-06-14T13:28:58;7.88;;;3.85;;
69841;SDS011;57138;51.326;-0.068;2023-06-14T13:31:23;13.43;;;4.47;;
69841;SDS011;57138;51.326;-0.068;2023-06-14T13:33:49;12.15;;;4.40;;
69841;SDS011;57138;51.326;-0.068;2023-06-14T13:36:14;11.73;;;4.88;;
69841;SDS011;57138;51.326;-0.068;2023-06-14T13:38:40;9.75;;;4.50;;
69841;SDS011;57138;51.326;-0.068;2023-06-14T13:41:05;8.23;;;3.88;;
69841;SDS011;57138;51.326;-0.068;2023-06-14T13:43:31;9.10;;;4.60;;
69841;SDS011;57138;51.326;-0.068;2023-06-14T13:45:56;9.18;;;4.07;;
69841;SDS011;57138;51.326;-0.068;2023-06-14T13:48:22;9.13;;;3.88;;
69841;SDS011;57138;51.326;-0.068;2023-06-14T13:50:47;10.63;;;4.90;;
69841;SDS011;57138;51.326;-0.068;2023-06-14T13:53:13;8.73;;;4.47;;
69841;SDS011;57138;51.326;-0.068;2023-06-14T13:55:39;13.55;;;4.60;;
69841;SDS011;57138;51.326;-0.068;2023-06-14T13:58:04;10.13;;;4.40;;
69841;SDS011;57138;51.326;-0.068;2023-06-14T14:00:30;11.27;;;4.43;;
69841;SDS011;57138;51.326;-0.068;2023-06-14T14:02:55;8.35;;;4.30;;
69841;SDS011;57138;51.326;-0.068;2023-06-14T14:05:22;9.18;;;3.78;;
69841;SDS011;57138;51.326;-0.068;2023-06-14T14:07:53;9.63;;;4.05;;
69841;SDS011;57138;51.326;-0.068;2023-06-14T14:10:19;7.75;;;4.25;;
69841;SDS011;57138;51.326;-0.068;2023-06-14T14:12:45;10.82;;;4.53;;
69841;SDS011;57138;51.326;-0.068;2023-06-14T14:15:11;7.97;;;3.70;;
69841;SDS011;57138;51.326;-0.068;2023-06-14T14:17:39;6.82;;;4.47;;
69841;SDS011;57138;51.326;-0.068;2023-06-14T14:20:05;10.85;;;4.38;;
69841;SDS011;57138;51.326;-0.068;2023-06-14T14:22:32;9.10;;;4.60;;
69841;SDS011;57138;51.326;-0.068;2023-06-14T14:24:58;9.95;;;3.90;;
69841;SDS011;57138;51.326;-0.068;2023-06-14T14:27:23;9.82;;;4.50;;
69841;SDS011;57138;51.326;-0.068;2023-06-14T14:29:49;10.63;;;4.88;;
69841;SDS011;57138;51.326;-0.068;2023-06-14T14:32:14;7.40;;;3.92;;
69841;SDS011;57138;51.326;-0.068;2023-06-14T14:34:40;9.32;;;4.13;;
69841;SDS011;57138;51.326;-0.068;2023-06-14T14:37:06;15.30;;;4.18;;
69841;SDS011;57138;51.326;-0.068;2023-06-14T14:39:31;7.03;;;4.15;;
69841;SDS011;57138;51.326;-0.068;2023-06-14T14:41:57;6.38;;;3.70;;
69841;SDS011;57138;51.326;-0.068;2023-06-14T14:44:22;8.82;;;3.88;;